createdAt,value
2023-03-31T00:00:35.368Z,25.00
2023-03-31T00:01:35.461Z,25.00
2023-03-31T00:02:35.702Z,25.00
2023-03-31T00:03:35.880Z,25.00
2023-03-31T00:04:35.946Z,25.73
2023-03-31T00:05:36.027Z,27.05
2023-03-31T00:06:36.220Z,28.15
2023-03-31T00:07:36.353Z,33.78
2023-03-31T00:08:36.501Z,27.37
2023-03-31T00:09:36.579Z,35.56
2023-03-31T00:10:36.648Z,25.00
2023-03-31T00:11:36.705Z,25.99
2023-03-31T00:12:36.720Z,28.09
2023-03-31T00:13:36.965Z,25.00
2023-03-31T00:14:36.838Z,29.34
2023-03-31T00:15:36.882Z,39.81
2023-03-31T00:16:37.075Z,33.67
2023-03-31T00:17:37.031Z,35.68
2023-03-31T00:18:37.043Z,33.59
2023-03-31T00:19:37.114Z,27.50
2023-03-31T00:20:37.153Z,32.13
2023-03-31T00:21:37.208Z,42.16
2023-03-31T00:22:37.259Z,35.14
2023-03-31T00:23:37.301Z,41.24
2023-03-31T00:24:37.363Z,45.84
2023-03-31T00:25:37.380Z,48.94
2023-03-31T00:26:37.442Z,51.43
2023-03-31T00:27:37.496Z,52.49
2023-03-31T00:28:37.533Z,50.14
2023-03-31T00:29:37.601Z,50.64
2023-03-31T00:30:37.641Z,55.06
2023-03-31T00:31:37.726Z,51.55
2023-03-31T00:32:37.760Z,48.64
2023-03-31T00:33:37.805Z,52.65
2023-03-31T00:34:37.855Z,50.22
2023-03-31T00:35:37.937Z,47.56
2023-03-31T00:36:37.953Z,45.43
2023-03-31T00:37:37.995Z,54.67
2023-03-31T00:38:38.074Z,49.39
2023-03-31T00:39:38.095Z,54.24
2023-03-31T00:40:38.142Z,49.42
2023-03-31T00:41:38.185Z,43.17
2023-03-31T00:42:38.308Z,44.90
2023-03-31T00:43:38.288Z,46.59
2023-03-31T00:44:38.346Z,48.33
2023-03-31T00:45:38.430Z,47.94
2023-03-31T00:46:38.415Z,47.84
2023-03-31T00:47:38.481Z,48.66
2023-03-31T00:48:38.531Z,49.85
2023-03-31T00:49:38.550Z,49.06
2023-03-31T00:50:38.594Z,46.32
2023-03-31T00:51:38.635Z,47.65
2023-03-31T00:52:38.729Z,49.04
2023-03-31T00:53:38.752Z,49.66
2023-03-31T00:54:38.796Z,48.14
2023-03-31T00:55:38.847Z,47.22
2023-03-31T00:56:38.890Z,48.28
2023-03-31T00:57:38.942Z,47.29
2023-03-31T00:58:38.982Z,44.77
2023-03-31T00:59:39.054Z,49.65
2023-03-31T01:00:39.061Z,47.74
2023-03-31T01:01:39.244Z,47.66
2023-03-31T01:02:39.191Z,50.94
2023-03-31T01:03:39.282Z,49.52
2023-03-31T01:04:39.289Z,51.51
2023-03-31T01:05:39.304Z,50.85
2023-03-31T01:06:39.405Z,52.80
2023-03-31T01:07:39.401Z,51.34
2023-03-31T01:08:39.450Z,49.86
2023-03-31T01:09:39.495Z,52.78
2023-03-31T01:10:39.542Z,50.78
2023-03-31T01:11:39.552Z,54.01
2023-03-31T01:12:39.606Z,53.94
2023-03-31T01:13:39.664Z,58.49
2023-03-31T01:14:39.714Z,56.61
2023-03-31T01:15:39.806Z,51.69
2023-03-31T01:16:39.907Z,52.75
2023-03-31T01:17:39.967Z,43.66
2023-03-31T01:18:39.962Z,40.82
2023-03-31T01:19:39.936Z,38.60
2023-03-31T01:20:39.996Z,39.01
2023-03-31T01:21:40.032Z,33.19
2023-03-31T01:22:40.090Z,30.46
2023-03-31T01:23:40.130Z,28.51
2023-03-31T01:24:40.198Z,25.54
2023-03-31T01:25:40.240Z,28.41
2023-03-31T01:26:40.272Z,27.65
2023-03-31T01:27:40.326Z,27.98
2023-03-31T01:28:40.368Z,32.17
2023-03-31T01:29:40.415Z,35.75
2023-03-31T01:30:40.452Z,40.32
2023-03-31T01:31:40.582Z,44.03
2023-03-31T01:32:40.622Z,45.22
2023-03-31T01:33:40.615Z,44.77
2023-03-31T01:34:40.612Z,42.23
2023-03-31T01:35:40.719Z,41.39
2023-03-31T01:36:40.690Z,38.94
2023-03-31T01:37:40.722Z,32.56
2023-03-31T01:38:40.791Z,31.18
2023-03-31T01:39:40.838Z,30.89
2023-03-31T01:40:40.911Z,30.48
2023-03-31T01:41:40.975Z,34.70
2023-03-31T01:42:41.003Z,34.00
2023-03-31T01:43:41.063Z,30.07
2023-03-31T01:44:41.125Z,39.84
2023-03-31T01:45:41.152Z,42.22
2023-03-31T01:46:41.230Z,43.12
2023-03-31T01:47:41.258Z,42.87
2023-03-31T01:48:41.325Z,42.79
2023-03-31T01:49:41.376Z,48.42
2023-03-31T01:50:41.429Z,46.09
2023-03-31T01:51:41.673Z,49.28
2023-03-31T01:52:41.562Z,50.06
2023-03-31T01:53:41.608Z,49.77
2023-03-31T01:54:41.655Z,53.78
2023-03-31T01:55:41.697Z,53.66
2023-03-31T01:56:41.796Z,56.18
2023-03-31T01:57:41.789Z,51.71
2023-03-31T01:58:41.843Z,49.65
2023-03-31T01:59:41.882Z,50.54
2023-03-31T02:00:41.901Z,50.95
2023-03-31T02:01:41.974Z,52.94
2023-03-31T02:02:42.062Z,48.54
2023-03-31T02:03:42.141Z,48.87
2023-03-31T02:04:42.107Z,49.06
2023-03-31T02:05:42.152Z,47.45
2023-03-31T02:06:42.234Z,39.57
2023-03-31T02:07:42.323Z,36.14
2023-03-31T02:08:42.320Z,35.65
2023-03-31T02:09:42.360Z,35.13
2023-03-31T02:10:42.424Z,32.31
2023-03-31T02:11:42.446Z,36.91
2023-03-31T02:12:42.527Z,43.91
2023-03-31T02:13:42.583Z,38.74
2023-03-31T02:14:42.590Z,40.66
2023-03-31T02:15:42.648Z,32.79
2023-03-31T02:16:42.721Z,31.12
2023-03-31T02:17:42.770Z,25.57
2023-03-31T02:18:42.787Z,29.82
2023-03-31T02:19:42.846Z,25.00
2023-03-31T02:20:42.934Z,26.31
2023-03-31T02:21:42.987Z,26.17
2023-03-31T02:22:43.034Z,39.69
2023-03-31T02:23:43.087Z,34.77
2023-03-31T02:24:43.076Z,34.17
2023-03-31T02:25:43.144Z,40.87
2023-03-31T02:26:43.310Z,38.71
2023-03-31T02:27:43.361Z,39.12
2023-03-31T02:28:43.517Z,40.93
2023-03-31T02:29:43.476Z,45.87
2023-03-31T02:30:43.540Z,41.40
2023-03-31T02:31:43.667Z,45.93
2023-03-31T02:32:43.676Z,47.17
2023-03-31T02:33:43.735Z,45.95
2023-03-31T02:34:43.755Z,49.09
2023-03-31T02:35:43.850Z,48.34
2023-03-31T02:36:43.810Z,45.82
2023-03-31T02:37:43.879Z,49.94
2023-03-31T02:38:43.960Z,49.98
2023-03-31T02:39:44.021Z,47.79
2023-03-31T02:40:44.041Z,47.01
2023-03-31T02:41:44.102Z,47.77
2023-03-31T02:42:44.126Z,47.42
2023-03-31T02:43:44.121Z,44.02
2023-03-31T02:44:44.130Z,39.42
2023-03-31T02:45:44.223Z,42.31
2023-03-31T02:46:44.250Z,42.37
2023-03-31T02:47:44.334Z,43.19
2023-03-31T02:48:44.361Z,42.83
2023-03-31T02:49:44.394Z,44.13
2023-03-31T02:50:44.474Z,46.31
2023-03-31T02:51:44.533Z,50.10
2023-03-31T02:52:44.564Z,53.60
2023-03-31T02:53:44.644Z,54.32
2023-03-31T02:54:44.700Z,52.83
2023-03-31T02:55:44.763Z,55.92
2023-03-31T02:56:44.844Z,54.56
2023-03-31T02:57:44.869Z,54.90
2023-03-31T02:58:44.908Z,58.17
2023-03-31T02:59:44.958Z,54.80
2023-03-31T03:00:45.024Z,56.73
2023-03-31T03:01:45.126Z,57.21
2023-03-31T03:02:45.172Z,56.61
2023-03-31T03:03:45.194Z,54.82
2023-03-31T03:04:45.247Z,51.91
2023-03-31T03:05:45.280Z,52.25
2023-03-31T03:06:45.367Z,50.45
2023-03-31T03:07:45.398Z,49.67
2023-03-31T03:08:45.482Z,52.11
2023-03-31T03:09:45.528Z,50.67
2023-03-31T03:10:45.609Z,51.35
2023-03-31T03:11:45.675Z,54.11
2023-03-31T03:12:45.724Z,51.11
2023-03-31T03:13:45.779Z,54.64
2023-03-31T03:14:45.853Z,52.03
2023-03-31T03:15:45.872Z,57.77
2023-03-31T03:16:45.973Z,58.73
2023-03-31T03:17:46.078Z,62.69
2023-03-31T03:18:46.022Z,62.76
2023-03-31T03:19:46.036Z,66.22
2023-03-31T03:20:46.090Z,64.50
2023-03-31T03:21:46.148Z,64.55
2023-03-31T03:22:46.217Z,66.94
2023-03-31T03:23:46.271Z,65.78
2023-03-31T03:24:46.306Z,65.66
2023-03-31T03:25:46.297Z,63.80
2023-03-31T03:26:46.348Z,64.84
2023-03-31T03:27:46.421Z,63.83
2023-03-31T03:28:46.462Z,64.48
2023-03-31T03:29:46.537Z,64.22
2023-03-31T03:30:46.587Z,65.66
2023-03-31T03:31:46.646Z,67.27
2023-03-31T03:32:46.772Z,59.39
2023-03-31T03:33:46.776Z,57.60
2023-03-31T03:34:46.811Z,51.35
2023-03-31T03:35:46.947Z,44.56
2023-03-31T03:36:46.931Z,44.20
2023-03-31T03:37:46.992Z,40.75
2023-03-31T03:38:47.085Z,42.15
2023-03-31T03:39:47.112Z,34.26
2023-03-31T03:40:48.893Z,38.74
2023-03-31T03:41:47.149Z,48.38
2023-03-31T03:42:47.137Z,44.09
2023-03-31T03:43:47.141Z,52.44
2023-03-31T03:44:47.131Z,54.23
2023-03-31T03:45:47.118Z,58.92
2023-03-31T03:46:47.140Z,59.38
2023-03-31T03:47:47.132Z,60.24
2023-03-31T03:48:47.118Z,63.80
2023-03-31T03:49:47.105Z,62.11
2023-03-31T03:50:47.073Z,66.03
2023-03-31T03:51:47.108Z,66.32
2023-03-31T03:52:47.051Z,64.94
2023-03-31T03:53:47.066Z,69.67
2023-03-31T03:54:47.037Z,67.98
2023-03-31T03:55:47.026Z,68.70
2023-03-31T03:56:47.056Z,66.54
2023-03-31T03:57:47.024Z,66.85
2023-03-31T03:58:47.006Z,69.02
2023-03-31T03:59:47.013Z,71.14
2023-03-31T04:00:47.001Z,68.73
2023-03-31T04:01:47.008Z,67.66
2023-03-31T04:02:47.074Z,68.89
2023-03-31T04:03:46.985Z,63.54
2023-03-31T04:04:47.110Z,61.60
2023-03-31T04:05:46.965Z,63.49
2023-03-31T04:06:46.967Z,65.11
2023-03-31T04:07:46.964Z,66.20
2023-03-31T04:08:46.959Z,63.75
2023-03-31T04:09:46.925Z,64.08
2023-03-31T04:10:46.935Z,63.16
2023-03-31T04:11:46.924Z,60.84
2023-03-31T04:12:46.935Z,59.23
2023-03-31T04:13:46.915Z,56.49
2023-03-31T04:14:46.885Z,54.97
2023-03-31T04:15:46.956Z,51.14
2023-03-31T04:16:47.051Z,54.92
2023-03-31T04:17:46.878Z,57.02
2023-03-31T04:18:46.855Z,56.95
2023-03-31T04:19:46.858Z,60.54
2023-03-31T04:20:46.887Z,62.97
2023-03-31T04:21:46.966Z,63.42
2023-03-31T04:22:47.021Z,64.31
2023-03-31T04:23:47.152Z,66.32
2023-03-31T04:24:47.128Z,64.31
2023-03-31T04:25:47.188Z,61.29
2023-03-31T04:26:47.260Z,63.71
2023-03-31T04:27:47.325Z,58.98
2023-03-31T04:28:47.383Z,61.26
2023-03-31T04:29:47.452Z,64.36
2023-03-31T04:30:47.510Z,65.82
2023-03-31T04:31:47.588Z,67.03
2023-03-31T04:32:47.620Z,68.32
2023-03-31T04:33:47.619Z,68.86
2023-03-31T04:34:47.666Z,68.54
2023-03-31T04:35:47.749Z,69.82
2023-03-31T04:36:48.221Z,69.77
2023-03-31T04:37:47.851Z,69.26
2023-03-31T04:38:47.893Z,70.85
2023-03-31T04:39:47.966Z,70.56
2023-03-31T04:40:48.029Z,67.88
2023-03-31T04:41:48.077Z,66.73
2023-03-31T04:42:48.136Z,67.05
2023-03-31T04:43:48.183Z,68.13
2023-03-31T04:44:48.212Z,67.66
2023-03-31T04:45:48.296Z,68.13
2023-03-31T04:46:48.335Z,71.05
2023-03-31T04:47:48.464Z,70.16
2023-03-31T04:48:48.483Z,72.50
2023-03-31T04:49:48.466Z,72.52
2023-03-31T04:50:48.521Z,72.27
2023-03-31T04:51:48.635Z,71.11
2023-03-31T04:52:48.645Z,69.66
2023-03-31T04:53:48.669Z,73.89
2023-03-31T04:54:48.744Z,71.54
2023-03-31T04:55:48.825Z,71.41
2023-03-31T04:56:48.894Z,70.46
2023-03-31T04:57:48.949Z,69.63
2023-03-31T04:58:49.084Z,68.64
2023-03-31T04:59:49.123Z,69.60
2023-03-31T05:00:49.159Z,73.00
2023-03-31T05:01:49.212Z,70.74
2023-03-31T05:02:49.348Z,69.92
2023-03-31T05:03:49.301Z,70.79
2023-03-31T05:04:49.352Z,74.51
2023-03-31T05:05:49.414Z,71.96
2023-03-31T05:06:49.420Z,74.82
2023-03-31T05:07:49.493Z,74.51
2023-03-31T05:08:49.565Z,74.93
2023-03-31T05:09:49.602Z,75.31
2023-03-31T05:10:49.705Z,72.04
2023-03-31T05:11:49.739Z,73.58
2023-03-31T05:12:49.819Z,73.43
2023-03-31T05:13:49.829Z,73.99
2023-03-31T05:14:49.872Z,74.66
2023-03-31T05:15:49.937Z,75.06
2023-03-31T05:16:50.015Z,75.98
2023-03-31T05:17:49.974Z,77.64
2023-03-31T05:18:50.046Z,75.59
2023-03-31T05:19:50.046Z,76.73
2023-03-31T05:20:50.113Z,77.49
2023-03-31T05:21:50.175Z,76.60
2023-03-31T05:22:50.236Z,76.45
2023-03-31T05:23:50.293Z,77.45
2023-03-31T05:24:50.295Z,77.12
2023-03-31T05:25:50.341Z,82.83
2023-03-31T05:26:50.415Z,91.90
2023-03-31T05:27:50.462Z,101.79
2023-03-31T05:28:50.501Z,98.76
2023-03-31T05:29:50.511Z,94.74
2023-03-31T05:30:50.532Z,106.19
2023-03-31T05:31:50.592Z,112.08
2023-03-31T05:32:50.594Z,116.73
2023-03-31T05:33:50.649Z,124.64
2023-03-31T05:34:52.169Z,131.33
2023-03-31T05:35:50.784Z,166.66
2023-03-31T05:36:50.786Z,184.84
2023-03-31T05:37:50.807Z,164.52
2023-03-31T05:38:50.841Z,162.56
2023-03-31T05:39:50.917Z,171.38
2023-03-31T05:40:50.963Z,180.47
2023-03-31T05:41:51.020Z,195.52
2023-03-31T05:42:51.076Z,198.43
2023-03-31T05:43:51.030Z,204.96
2023-03-31T05:44:51.085Z,205.58
2023-03-31T05:45:51.184Z,213.99
2023-03-31T05:46:51.260Z,221.71
2023-03-31T05:47:51.239Z,235.36
2023-03-31T05:48:51.180Z,239.88
2023-03-31T05:49:51.239Z,249.83
2023-03-31T05:50:51.239Z,251.82
2023-03-31T05:51:51.260Z,249.85
2023-03-31T05:52:51.606Z,249.07
2023-03-31T05:53:51.335Z,246.10
2023-03-31T05:54:51.358Z,241.33
2023-03-31T05:55:51.414Z,241.44
2023-03-31T05:56:51.468Z,231.32
2023-03-31T05:57:51.452Z,198.05
2023-03-31T05:58:51.495Z,177.89
2023-03-31T05:59:51.550Z,184.83
2023-03-31T06:00:51.640Z,181.87
2023-03-31T06:01:51.762Z,171.75
2023-03-31T06:02:51.833Z,156.35
2023-03-31T06:03:51.924Z,154.98
2023-03-31T06:04:51.808Z,179.84
2023-03-31T06:05:51.862Z,177.22
2023-03-31T06:06:51.883Z,179.50
2023-03-31T06:07:51.952Z,186.76
2023-03-31T06:08:52.001Z,187.54
2023-03-31T06:09:52.603Z,189.27
2023-03-31T06:10:52.087Z,192.99
2023-03-31T06:11:52.191Z,191.72
2023-03-31T06:12:52.640Z,191.55
2023-03-31T06:13:52.611Z,193.35
2023-03-31T06:14:52.312Z,193.28
2023-03-31T06:15:52.350Z,197.39
2023-03-31T06:16:52.370Z,200.04
2023-03-31T06:17:52.441Z,199.89
2023-03-31T06:18:52.419Z,177.12
2023-03-31T06:19:52.447Z,174.20
2023-03-31T06:20:52.466Z,177.33
2023-03-31T06:21:52.555Z,166.31
2023-03-31T06:22:52.624Z,163.46
2023-03-31T06:23:52.668Z,159.59
2023-03-31T06:24:52.658Z,159.53
2023-03-31T06:25:52.721Z,216.91
2023-03-31T06:26:53.938Z,225.41
2023-03-31T06:27:52.870Z,223.43
2023-03-31T06:28:52.934Z,246.53
2023-03-31T06:29:52.994Z,190.96
2023-03-31T06:30:53.021Z,176.98
2023-03-31T06:31:53.114Z,167.10
2023-03-31T06:32:53.197Z,175.94
2023-03-31T06:33:53.648Z,183.58
2023-03-31T06:34:53.188Z,189.27
2023-03-31T06:35:53.217Z,211.78
2023-03-31T06:36:53.254Z,205.57
2023-03-31T06:37:53.315Z,199.50
2023-03-31T06:38:53.341Z,195.82
2023-03-31T06:39:53.433Z,192.04
2023-03-31T06:40:53.507Z,183.34
2023-03-31T06:41:53.576Z,186.93
2023-03-31T06:42:53.605Z,189.43
2023-03-31T06:43:53.659Z,190.03
2023-03-31T06:44:53.695Z,185.96
2023-03-31T06:45:54.053Z,186.18
2023-03-31T06:46:53.807Z,189.69
2023-03-31T06:47:53.902Z,192.47
2023-03-31T06:48:54.104Z,191.87
2023-03-31T06:49:53.958Z,191.44
2023-03-31T06:50:54.043Z,191.77
2023-03-31T06:51:54.061Z,192.69
2023-03-31T06:52:54.102Z,196.22
2023-03-31T06:53:54.624Z,199.05
2023-03-31T06:54:54.183Z,202.51
2023-03-31T06:55:54.186Z,202.56
2023-03-31T06:56:54.393Z,204.82
2023-03-31T06:57:54.221Z,207.22
2023-03-31T06:58:54.249Z,209.36
2023-03-31T06:59:54.239Z,209.88
2023-03-31T07:00:54.321Z,211.71
2023-03-31T07:01:54.355Z,213.10
2023-03-31T07:02:54.398Z,213.35
2023-03-31T07:03:54.731Z,217.74
2023-03-31T07:04:54.277Z,218.01
2023-03-31T07:05:54.281Z,217.30
2023-03-31T07:06:54.264Z,219.08
2023-03-31T07:07:54.309Z,219.00
2023-03-31T07:08:54.663Z,222.01
2023-03-31T07:09:56.285Z,223.06
2023-03-31T07:10:54.503Z,224.81
2023-03-31T07:11:56.543Z,232.62
2023-03-31T07:12:54.609Z,237.85
2023-03-31T07:13:54.654Z,240.56
2023-03-31T07:14:54.707Z,240.38
2023-03-31T07:15:54.787Z,243.44
2023-03-31T07:16:54.798Z,243.93
2023-03-31T07:17:54.863Z,247.62
2023-03-31T07:18:54.919Z,250.00
2023-03-31T07:19:54.902Z,250.00
2023-03-31T07:20:54.986Z,248.73
2023-03-31T07:21:54.994Z,250.00
2023-03-31T07:22:55.021Z,250.19
2023-03-31T07:23:55.092Z,248.16
2023-03-31T07:24:55.122Z,250.00
2023-03-31T07:25:55.151Z,250.00
2023-03-31T07:26:55.187Z,262.49
2023-03-31T07:27:55.276Z,248.89
2023-03-31T07:28:55.297Z,248.22
2023-03-31T07:29:55.624Z,248.09
2023-03-31T07:30:55.433Z,246.73
2023-03-31T07:31:55.641Z,243.67
2023-03-31T07:32:55.636Z,226.49
2023-03-31T07:33:55.617Z,212.11
2023-03-31T07:34:55.614Z,204.64
2023-03-31T07:36:10.015Z,204.80
2023-03-31T07:36:56.682Z,205.11
2023-03-31T07:37:55.650Z,205.46
2023-03-31T07:38:56.150Z,190.13
2023-03-31T07:39:55.618Z,189.95
2023-03-31T07:41:07.787Z,178.71
2023-03-31T07:41:56.665Z,182.15
2023-03-31T07:42:55.738Z,176.86
2023-03-31T07:43:55.763Z,175.53
2023-03-31T07:44:55.794Z,167.15
2023-03-31T07:45:55.863Z,160.86
2023-03-31T07:46:55.889Z,155.02
2023-03-31T07:47:55.886Z,160.61
2023-03-31T07:48:55.871Z,154.43
2023-03-31T07:49:55.892Z,150.83
2023-03-31T07:50:55.916Z,159.06
2023-03-31T07:51:55.909Z,167.37
2023-03-31T07:52:55.972Z,169.00
2023-03-31T07:53:55.894Z,174.25
2023-03-31T07:54:55.954Z,176.80
2023-03-31T07:55:55.914Z,188.24
2023-03-31T07:56:56.001Z,189.54
2023-03-31T07:57:55.922Z,233.06
2023-03-31T07:58:57.688Z,216.62
2023-03-31T07:59:56.012Z,204.63
2023-03-31T08:00:56.044Z,199.78
2023-03-31T08:01:56.178Z,195.53
2023-03-31T08:02:56.163Z,194.73
2023-03-31T08:03:56.373Z,194.48
2023-03-31T08:04:56.279Z,193.14
2023-03-31T08:05:56.289Z,196.10
2023-03-31T08:06:56.379Z,200.51
2023-03-31T08:07:56.382Z,199.30
2023-03-31T08:08:56.636Z,196.68
2023-03-31T08:09:56.453Z,191.38
2023-03-31T08:10:56.469Z,192.16
2023-03-31T08:11:56.461Z,192.18
2023-03-31T08:12:56.514Z,194.19
2023-03-31T08:13:56.534Z,198.02
2023-03-31T08:14:56.534Z,196.73
2023-03-31T08:15:56.553Z,197.71
2023-03-31T08:16:56.540Z,195.31
2023-03-31T08:17:56.651Z,194.63
2023-03-31T08:18:56.621Z,193.17
2023-03-31T08:19:56.660Z,192.02
2023-03-31T08:20:56.695Z,196.26
2023-03-31T08:21:57.187Z,199.86
2023-03-31T08:22:56.693Z,175.97
2023-03-31T08:23:56.772Z,169.80
2023-03-31T08:24:56.792Z,165.23
2023-03-31T08:25:56.827Z,155.56
2023-03-31T08:26:57.139Z,158.54
2023-03-31T08:27:57.640Z,151.94
2023-03-31T08:28:57.008Z,152.90
2023-03-31T08:29:57.036Z,155.26
2023-03-31T08:30:57.128Z,147.28
2023-03-31T08:31:57.268Z,135.04
2023-03-31T08:32:57.256Z,130.26
2023-03-31T08:33:57.250Z,130.38
2023-03-31T08:34:57.397Z,118.17
2023-03-31T08:35:57.429Z,118.60
2023-03-31T08:36:57.641Z,118.57
2023-03-31T08:37:57.516Z,120.34
2023-03-31T08:38:57.574Z,105.09
2023-03-31T08:39:58.184Z,77.09
2023-03-31T08:40:57.722Z,79.37
2023-03-31T08:41:57.703Z,80.61
2023-03-31T08:42:57.746Z,76.38
2023-03-31T08:43:57.791Z,76.26
2023-03-31T08:44:57.847Z,65.46
2023-03-31T08:45:57.940Z,43.69
2023-03-31T08:46:57.965Z,25.00
2023-03-31T08:47:58.076Z,25.00
2023-03-31T08:48:58.002Z,25.92
2023-03-31T08:49:58.003Z,25.00
2023-03-31T08:50:58.033Z,25.81
2023-03-31T08:51:58.684Z,24.32
2023-03-31T08:52:58.119Z,28.07
2023-03-31T08:53:58.113Z,32.93
2023-03-31T08:54:58.185Z,34.76
2023-03-31T08:55:58.250Z,28.84
2023-03-31T08:56:58.372Z,23.88
2023-03-31T08:57:58.326Z,28.22
2023-03-31T08:58:58.388Z,25.00
2023-03-31T08:59:58.668Z,25.15
2023-03-31T09:00:58.460Z,25.00
2023-03-31T09:01:58.534Z,26.57
2023-03-31T09:02:58.585Z,33.03
2023-03-31T09:03:58.696Z,28.47
2023-03-31T09:04:58.596Z,40.42
2023-03-31T09:06:01.006Z,50.87
2023-03-31T09:06:58.795Z,54.27
2023-03-31T09:07:59.155Z,52.46
2023-03-31T09:08:58.879Z,42.64
2023-03-31T09:09:59.152Z,41.11
2023-03-31T09:10:58.918Z,35.03
2023-03-31T09:11:58.985Z,44.15
2023-03-31T09:12:59.228Z,68.00
2023-03-31T09:13:58.964Z,72.37
2023-03-31T09:14:59.012Z,78.44
2023-03-31T09:15:59.053Z,88.70
2023-03-31T09:16:59.171Z,101.37
2023-03-31T09:17:59.220Z,97.60
2023-03-31T09:18:59.224Z,111.35
2023-03-31T09:19:59.289Z,108.11
2023-03-31T09:20:59.314Z,84.23
2023-03-31T09:21:59.354Z,77.90
2023-03-31T09:22:59.433Z,61.70
2023-03-31T09:23:59.469Z,49.21
2023-03-31T09:24:59.529Z,48.03
2023-03-31T09:25:59.635Z,65.40
2023-03-31T09:26:59.657Z,73.31
2023-03-31T09:27:59.676Z,70.23
2023-03-31T09:28:59.708Z,78.26
2023-03-31T09:29:59.773Z,87.39
2023-03-31T09:30:59.816Z,107.34
2023-03-31T09:31:59.947Z,113.11
2023-03-31T09:32:59.972Z,121.22
2023-03-31T09:33:59.933Z,124.43
2023-03-31T09:35:00.195Z,137.32
2023-03-31T09:35:59.997Z,145.79
2023-03-31T09:37:00.027Z,152.24
2023-03-31T09:38:00.025Z,157.16
2023-03-31T09:38:59.987Z,161.44
2023-03-31T09:40:00.226Z,164.38
2023-03-31T09:40:59.992Z,168.61
2023-03-31T09:42:00.037Z,171.22
2023-03-31T09:43:00.096Z,166.34
2023-03-31T09:44:00.111Z,166.44
2023-03-31T09:45:00.168Z,169.90
2023-03-31T09:47:00.308Z,175.67
2023-03-31T09:48:00.236Z,168.12
2023-03-31T09:49:00.193Z,162.44
2023-03-31T09:50:00.320Z,161.21
2023-03-31T09:51:00.163Z,172.66
2023-03-31T09:52:00.175Z,177.75
2023-03-31T09:53:00.182Z,177.54
2023-03-31T09:54:00.166Z,174.54
2023-03-31T09:55:00.247Z,174.97
2023-03-31T09:56:00.161Z,174.00
2023-03-31T09:57:00.229Z,180.26
2023-03-31T09:58:00.198Z,173.53
2023-03-31T09:59:00.186Z,167.22
2023-03-31T10:00:00.195Z,163.39
2023-03-31T10:01:00.161Z,161.58
2023-03-31T10:02:00.404Z,159.49
2023-03-31T10:03:00.244Z,165.59
2023-03-31T10:04:00.191Z,166.19
2023-03-31T10:05:00.202Z,162.76
2023-03-31T10:06:00.050Z,143.60
2023-03-31T10:07:00.094Z,140.21
2023-03-31T10:08:00.123Z,128.59
2023-03-31T10:09:00.031Z,125.81
2023-03-31T10:10:00.265Z,132.01
2023-03-31T10:11:00.197Z,137.54
2023-03-31T10:12:00.137Z,144.05
2023-03-31T10:13:00.016Z,142.75
2023-03-31T10:14:00.013Z,136.78
2023-03-31T10:15:00.009Z,141.62
2023-03-31T10:16:00.008Z,137.71
2023-03-31T10:17:00.003Z,128.51
2023-03-31T10:18:00.000Z,121.94
2023-03-31T10:18:59.975Z,122.50
2023-03-31T10:19:59.973Z,107.97
2023-03-31T10:20:59.961Z,106.03
2023-03-31T10:21:59.964Z,114.31
2023-03-31T10:22:59.999Z,125.45
2023-03-31T10:24:00.070Z,138.93
2023-03-31T10:25:00.215Z,148.65
2023-03-31T10:26:00.168Z,155.99
2023-03-31T10:27:00.190Z,166.34
2023-03-31T10:28:00.230Z,175.63
2023-03-31T10:29:00.281Z,181.67
2023-03-31T10:30:00.538Z,186.10
2023-03-31T10:31:00.773Z,189.61
2023-03-31T10:32:00.628Z,190.59
2023-03-31T10:33:08.456Z,192.88
2023-03-31T10:34:01.663Z,193.09
2023-03-31T10:35:00.656Z,193.53
2023-03-31T10:36:00.732Z,194.60
2023-03-31T10:37:00.641Z,193.17
2023-03-31T10:38:00.634Z,194.97
2023-03-31T10:39:00.617Z,184.12
2023-03-31T10:40:00.651Z,185.66
2023-03-31T10:41:00.809Z,185.15
2023-03-31T10:42:00.597Z,183.06
2023-03-31T10:43:00.643Z,186.97
2023-03-31T10:44:00.683Z,182.19
2023-03-31T10:45:00.758Z,180.94
2023-03-31T10:46:00.828Z,179.10
2023-03-31T10:47:00.979Z,184.60
2023-03-31T10:48:00.965Z,183.79
2023-03-31T10:49:01.049Z,180.19
2023-03-31T10:50:01.046Z,185.38
2023-03-31T10:51:01.192Z,187.11
2023-03-31T10:52:01.118Z,189.82
2023-03-31T10:53:01.170Z,189.26
2023-03-31T10:54:01.199Z,185.04
2023-03-31T10:55:01.264Z,180.81
2023-03-31T10:56:01.713Z,180.85
2023-03-31T10:57:01.332Z,174.95
2023-03-31T10:58:01.354Z,174.28
2023-03-31T10:59:05.928Z,175.96
2023-03-31T11:00:02.402Z,171.95
2023-03-31T11:01:01.692Z,169.98
2023-03-31T11:02:01.437Z,165.85
2023-03-31T11:03:01.464Z,163.58
2023-03-31T11:04:01.469Z,165.37
2023-03-31T11:05:01.402Z,171.21
2023-03-31T11:06:01.708Z,174.73
2023-03-31T11:07:01.423Z,174.14
2023-03-31T11:08:01.438Z,169.93
2023-03-31T11:09:01.415Z,172.91
2023-03-31T11:10:01.429Z,182.19
2023-03-31T11:11:01.759Z,177.11
2023-03-31T11:12:01.531Z,166.11
2023-03-31T11:13:01.559Z,163.49
2023-03-31T11:14:01.579Z,170.01
2023-03-31T11:15:01.623Z,173.21
2023-03-31T11:16:01.658Z,167.36
2023-03-31T11:17:01.657Z,173.40
2023-03-31T11:18:01.699Z,167.41
2023-03-31T11:19:01.652Z,158.79
2023-03-31T11:20:01.681Z,151.71
2023-03-31T11:21:01.684Z,149.36
2023-03-31T11:22:01.670Z,139.73
2023-03-31T11:23:01.713Z,142.37
2023-03-31T11:24:01.681Z,141.12
2023-03-31T11:25:01.696Z,148.15
2023-03-31T11:26:01.692Z,140.07
2023-03-31T11:27:01.719Z,137.34
2023-03-31T11:28:01.727Z,141.09
2023-03-31T11:29:01.766Z,141.71
2023-03-31T11:30:01.766Z,138.00
2023-03-31T11:31:01.776Z,137.79
2023-03-31T11:32:01.877Z,136.66
2023-03-31T11:33:01.860Z,133.23
2023-03-31T11:34:01.843Z,132.06
2023-03-31T11:35:01.864Z,128.65
2023-03-31T11:36:01.931Z,126.05
2023-03-31T11:37:01.916Z,124.54
2023-03-31T11:38:01.951Z,121.34
2023-03-31T11:39:01.961Z,111.96
2023-03-31T11:40:02.018Z,113.44
2023-03-31T11:41:02.030Z,110.06
2023-03-31T11:42:02.105Z,106.52
2023-03-31T11:43:02.137Z,102.75
2023-03-31T11:44:02.168Z,96.52
2023-03-31T11:45:02.188Z,93.08
2023-03-31T11:46:02.323Z,88.30
2023-03-31T11:47:02.294Z,84.46
2023-03-31T11:48:02.544Z,80.02
2023-03-31T11:49:02.381Z,79.89
2023-03-31T11:50:02.421Z,76.99
2023-03-31T11:51:02.500Z,71.43
2023-03-31T11:52:02.525Z,69.72
2023-03-31T11:53:02.562Z,67.67
2023-03-31T11:54:02.585Z,68.24
2023-03-31T11:55:03.415Z,69.49
2023-03-31T11:56:02.714Z,68.12
2023-03-31T11:57:02.800Z,63.85
2023-03-31T11:58:02.796Z,63.67
2023-03-31T11:59:02.834Z,62.60
2023-03-31T12:00:02.878Z,63.61
2023-03-31T12:01:03.629Z,62.61
2023-03-31T12:02:03.247Z,62.48
2023-03-31T12:03:03.093Z,62.24
2023-03-31T12:04:03.121Z,61.30
2023-03-31T12:05:03.091Z,59.60
2023-03-31T12:06:03.271Z,56.80
2023-03-31T12:07:03.242Z,54.50
2023-03-31T12:08:03.284Z,52.51
2023-03-31T12:09:03.335Z,49.98
2023-03-31T12:10:03.386Z,43.72
2023-03-31T12:11:03.422Z,38.85
2023-03-31T12:12:03.453Z,39.11
2023-03-31T12:13:03.537Z,35.38
2023-03-31T12:14:03.483Z,36.54
2023-03-31T12:15:03.550Z,33.09
2023-03-31T12:16:03.664Z,30.21
2023-03-31T12:17:03.584Z,26.33
2023-03-31T12:18:03.656Z,25.00
2023-03-31T12:19:03.599Z,25.00
2023-03-31T12:20:03.599Z,26.25
2023-03-31T12:21:03.596Z,25.00
2023-03-31T12:22:03.636Z,25.64
2023-03-31T12:23:03.756Z,27.06
2023-03-31T12:24:04.711Z,25.58
2023-03-31T12:25:03.886Z,26.30
2023-03-31T12:26:04.040Z,25.26
2023-03-31T12:27:03.928Z,26.22
2023-03-31T12:28:03.906Z,25.22
2023-03-31T12:29:03.920Z,27.21
2023-03-31T12:30:04.064Z,25.00
2023-03-31T12:31:03.993Z,27.17
2023-03-31T12:32:03.996Z,25.77
2023-03-31T12:33:04.102Z,27.63
2023-03-31T12:34:04.072Z,24.10
2023-03-31T12:35:04.115Z,23.77
2023-03-31T12:36:04.381Z,24.67
2023-03-31T12:37:04.171Z,27.49
2023-03-31T12:38:04.218Z,26.47
2023-03-31T12:39:04.238Z,24.76
2023-03-31T12:40:04.260Z,26.50
2023-03-31T12:41:04.287Z,29.60
2023-03-31T12:42:04.291Z,31.03
2023-03-31T12:43:04.339Z,39.51
2023-03-31T12:44:04.328Z,37.46